createdAt,value
2023-04-07T00:01:06.423Z,101384.75
2023-04-07T00:03:33.899Z,101381.44
2023-04-07T00:06:01.168Z,101378.88
2023-04-07T00:08:28.406Z,101376.09
2023-04-07T00:10:55.840Z,101367.31
2023-04-07T00:13:23.027Z,101375.09
2023-04-07T00:15:50.323Z,101381.66
2023-04-07T00:18:17.522Z,101377.91
2023-04-07T00:20:45.005Z,101376.00
2023-04-07T00:23:12.486Z,101376.72
2023-04-07T00:25:39.741Z,101372.09
2023-04-07T00:28:06.905Z,101374.03
2023-04-07T00:30:34.072Z,101373.31
2023-04-07T00:33:01.399Z,101369.88
2023-04-07T00:35:28.607Z,101361.38
2023-04-07T00:37:55.977Z,101374.25
2023-04-07T00:40:23.346Z,101369.03
2023-04-07T00:42:50.541Z,101369.66
2023-04-07T00:45:17.695Z,101370.00
2023-04-07T00:47:44.934Z,101363.44
2023-04-07T00:50:12.395Z,101368.03
2023-04-07T00:52:40.669Z,101362.47
2023-04-07T00:55:08.134Z,101360.84
2023-04-07T00:57:35.337Z,101360.84
2023-04-07T01:00:02.608Z,101355.38
2023-04-07T01:02:43.551Z,101366.16
2023-04-07T01:05:17.281Z,101374.22
2023-04-07T01:08:09.494Z,101351.28
2023-04-07T01:10:57.417Z,101358.03
2023-04-07T01:13:36.804Z,101352.66
2023-04-07T01:16:07.328Z,101349.84
2023-04-07T01:18:36.926Z,101351.56
2023-04-07T01:21:07.801Z,101345.47
2023-04-07T01:23:57.110Z,101339.25
2023-04-07T01:26:31.018Z,101340.84
2023-04-07T01:29:08.069Z,101341.56
2023-04-07T01:31:36.505Z,101340.09
2023-04-07T01:34:04.912Z,101344.38
2023-04-07T01:36:33.861Z,101340.09
2023-04-07T01:39:01.061Z,101335.06
2023-04-07T01:41:28.994Z,101334.44
2023-04-07T01:43:57.119Z,101339.34
2023-04-07T01:46:24.340Z,101338.25
2023-04-07T01:48:52.356Z,101341.06
2023-04-07T01:51:21.603Z,101339.56
2023-04-07T01:53:49.791Z,101338.63
2023-04-07T01:56:17.296Z,101331.19
2023-04-07T01:58:44.457Z,101334.81
2023-04-07T02:01:11.974Z,101326.78
2023-04-07T02:03:55.717Z,101324.97
2023-04-07T02:06:34.955Z,101333.03
2023-04-07T02:09:04.442Z,101327.97
2023-04-07T02:11:33.536Z,101324.09
2023-04-07T02:14:00.677Z,101326.28
2023-04-07T02:16:29.727Z,101321.53
2023-04-07T02:18:56.984Z,101325.19
2023-04-07T02:21:25.219Z,101317.66
2023-04-07T02:23:52.456Z,101325.81
2023-04-07T02:26:20.018Z,101318.88
2023-04-07T02:28:47.275Z,101324.97
2023-04-07T02:31:14.444Z,101320.69
2023-04-07T02:33:41.639Z,101316.28
2023-04-07T02:36:08.833Z,101317.03
2023-04-07T02:38:36.036Z,101312.88
2023-04-07T02:41:03.232Z,101310.81
2023-04-07T02:43:30.412Z,101312.88
2023-04-07T02:45:57.673Z,101317.38
2023-04-07T02:48:24.872Z,101312.03
2023-04-07T02:50:54.213Z,101309.44
2023-04-07T02:53:21.655Z,101310.28
2023-04-07T02:55:48.827Z,101305.91
2023-04-07T02:58:16.085Z,101314.94
2023-04-07T03:00:43.258Z,101314.69
2023-04-07T03:03:10.995Z,101308.72
2023-04-07T03:05:38.241Z,101305.91
2023-04-07T03:08:05.706Z,101302.47
2023-04-07T03:10:32.984Z,101311.50
2023-04-07T03:13:00.380Z,101303.34
2023-04-07T03:15:27.596Z,101302.59
2023-04-07T03:17:57.160Z,101301.84
2023-04-07T03:20:24.417Z,101297.22
2023-04-07T03:22:51.606Z,101300.75
2023-04-07T03:25:20.802Z,101292.84
2023-04-07T03:27:48.169Z,101295.41
2023-04-07T03:30:15.385Z,101297.34
2023-04-07T03:32:42.661Z,101290.25
2023-04-07T03:35:12.649Z,101292.94
2023-04-07T03:37:39.828Z,101289.53
2023-04-07T03:40:07.544Z,101291.97
2023-04-07T03:42:34.696Z,101297.47
2023-04-07T03:45:02.245Z,101289.53
2023-04-07T03:47:29.539Z,101289.63
2023-04-07T03:49:57.451Z,101292.31
2023-04-07T03:52:24.653Z,101293.38
2023-04-07T03:54:51.827Z,101292.44
2023-04-07T03:57:19.024Z,101290.50
2023-04-07T03:59:47.872Z,101290.63
2023-04-07T04:02:16.011Z,101292.31
2023-04-07T04:04:43.362Z,101287.94
2023-04-07T04:07:10.610Z,101298.00
2023-04-07T04:09:37.767Z,101295.19
2023-04-07T04:12:05.051Z,101290.69
2023-04-07T04:14:34.530Z,101284.47
2023-04-07T04:17:01.746Z,101289.22
2023-04-07T04:19:33.085Z,101289.63
2023-04-07T04:22:00.267Z,101293.31
2023-04-07T04:24:27.439Z,101299.72
2023-04-07T04:26:54.614Z,101297.25
2023-04-07T04:29:21.839Z,101290.91
2023-04-07T04:31:49.072Z,101297.88
2023-04-07T04:34:16.390Z,101296.28
2023-04-07T04:36:43.753Z,101296.19
2023-04-07T04:39:11.032Z,101301.41
2023-04-07T04:41:38.177Z,101294.22
2023-04-07T04:44:05.402Z,101292.44
2023-04-07T04:46:32.684Z,101294.22
2023-04-07T04:48:59.893Z,101295.00
2023-04-07T04:51:27.281Z,101296.72
2023-04-07T04:53:54.670Z,101288.44
2023-04-07T04:56:22.232Z,101299.38
2023-04-07T04:58:49.418Z,101292.84
2023-04-07T05:01:16.647Z,101297.22
2023-04-07T05:03:48.294Z,101297.84
2023-04-07T05:06:15.737Z,101295.94
2023-04-07T05:08:42.919Z,101296.88
2023-04-07T05:11:10.197Z,101297.09
2023-04-07T05:13:37.371Z,101306.53
2023-04-07T05:16:04.952Z,101299.56
2023-04-07T05:18:32.201Z,101301.28
2023-04-07T05:20:59.447Z,101307.38
2023-04-07T05:23:26.615Z,101312.97
2023-04-07T05:25:53.877Z,101318.09
2023-04-07T05:28:21.182Z,101316.28
2023-04-07T05:30:49.038Z,101311.44
2023-04-07T05:33:16.228Z,101317.66
2023-04-07T05:35:46.162Z,101314.34
2023-04-07T05:38:13.822Z,101316.72
2023-04-07T05:40:42.249Z,101312.41
2023-04-07T05:43:09.451Z,101314.13
2023-04-07T05:45:36.671Z,101308.75
2023-04-07T05:48:03.984Z,101314.88
2023-04-07T05:50:31.183Z,101312.06
2023-04-07T05:52:58.351Z,101305.47
2023-04-07T05:55:25.796Z,101311.97
2023-04-07T05:57:52.973Z,101315.59
2023-04-07T06:00:20.718Z,101312.06
2023-04-07T06:02:48.275Z,101315.38
2023-04-07T06:05:15.812Z,101312.81
2023-04-07T06:07:43.055Z,101311.84
2023-04-07T06:10:10.436Z,101306.25
2023-04-07T06:12:37.637Z,101314.06
2023-04-07T06:15:05.089Z,101321.94
2023-04-07T06:17:32.384Z,101315.94
2023-04-07T06:19:59.554Z,101311.84
2023-04-07T06:22:26.762Z,101317.94
2023-04-07T06:24:53.983Z,101315.03
2023-04-07T06:27:22.297Z,101322.97
2023-04-07T06:29:49.676Z,101315.53
2023-04-07T06:32:17.064Z,101317.13
2023-04-07T06:34:44.413Z,101323.56
2023-04-07T06:37:11.716Z,101317.97
2023-04-07T06:39:39.291Z,101317.97
2023-04-07T06:42:06.549Z,101318.50
2023-04-07T06:44:33.740Z,101314.34
2023-04-07T06:47:01.045Z,101317.25
2023-04-07T06:49:28.222Z,101312.13
2023-04-07T06:51:55.489Z,101315.31
2023-04-07T06:54:22.660Z,101321.50
2023-04-07T06:56:50.619Z,101324.84
2023-04-07T06:59:18.198Z,101318.59
2023-04-07T07:01:46.355Z,101322.88
2023-04-07T07:04:13.688Z,101321.22
2023-04-07T07:06:41.028Z,101318.06
2023-04-07T07:09:08.370Z,101323.66
2023-04-07T07:11:35.626Z,101317.72
2023-04-07T07:14:02.788Z,101321.16
2023-04-07T07:16:30.175Z,101309.69
2023-04-07T07:18:57.392Z,101321.41
2023-04-07T07:21:24.587Z,101323.34
2023-04-07T07:23:51.794Z,101317.72
2023-04-07T07:26:18.949Z,101320.41
2023-04-07T07:28:47.060Z,101317.63
2023-04-07T07:31:15.637Z,101324.69
2023-04-07T07:33:44.174Z,101325.69
2023-04-07T07:36:11.725Z,101326.28
2023-04-07T07:38:39.719Z,101329.56
2023-04-07T07:41:07.504Z,101324.06
2023-04-07T07:43:34.880Z,101330.34
2023-04-07T07:46:02.169Z,101336.78
2023-04-07T07:48:29.390Z,101336.19
2023-04-07T07:50:56.996Z,101336.44
2023-04-07T07:53:24.310Z,101346.78
2023-04-07T07:55:51.637Z,101351.69
2023-04-07T07:58:21.678Z,101345.34
2023-04-07T08:00:48.843Z,101347.03
2023-04-07T08:03:19.186Z,101344.84
2023-04-07T08:05:46.899Z,101350.19
2023-04-07T08:08:14.340Z,101347.59
2023-04-07T08:10:41.740Z,101349.69
2023-04-07T08:13:08.958Z,101343.97
2023-04-07T08:15:36.143Z,101341.53
2023-04-07T08:18:07.190Z,101346.00
2023-04-07T08:20:34.664Z,101347.13
2023-04-07T08:23:02.254Z,101341.13
2023-04-07T08:25:29.896Z,101351.13
2023-04-07T08:27:57.277Z,101342.56
2023-04-07T08:30:24.653Z,101351.59
2023-04-07T08:32:51.913Z,101362.44
2023-04-07T08:35:19.481Z,101356.31
2023-04-07T08:37:47.505Z,101364.25
2023-04-07T08:40:14.734Z,101356.41
2023-04-07T08:42:45.405Z,101358.25
2023-04-07T08:45:13.674Z,101350.19
2023-04-07T08:47:44.127Z,101358.38
2023-04-07T08:50:12.577Z,101352.25
2023-04-07T08:52:46.881Z,101357.75
2023-04-07T08:55:14.208Z,101356.66
2023-04-07T08:57:42.867Z,101362.28
2023-04-07T09:00:11.112Z,101361.31
2023-04-07T09:02:40.025Z,101366.16
2023-04-07T09:05:08.821Z,101357.16
2023-04-07T09:07:37.301Z,101365.19
2023-04-07T09:10:05.358Z,101367.88
2023-04-07T09:12:33.481Z,101374.09
2023-04-07T09:15:01.127Z,101372.59
2023-04-07T09:17:29.069Z,101373.47
2023-04-07T09:20:00.852Z,101364.69
2023-04-07T09:22:37.628Z,101371.75
2023-04-07T09:25:27.095Z,101368.13
2023-04-07T09:27:59.265Z,101364.16
2023-04-07T09:30:27.017Z,101370.28
2023-04-07T09:32:54.382Z,101367.75
2023-04-07T09:35:23.325Z,101370.50
2023-04-07T09:38:06.640Z,101374.09
2023-04-07T09:40:34.164Z,101372.38
2023-04-07T09:43:01.623Z,101370.56
2023-04-07T09:47:59.959Z,101374.72
2023-04-07T09:50:45.792Z,101368.50
2023-04-07T09:53:13.276Z,101367.66
2023-04-07T09:55:44.089Z,101367.38
2023-04-07T09:58:16.902Z,101371.06
2023-04-07T10:00:44.427Z,101373.88
2023-04-07T10:03:12.164Z,101372.91
2023-04-07T10:05:41.414Z,101377.34
2023-04-07T10:08:09.668Z,101370.25
2023-04-07T10:10:40.860Z,101376.16
2023-04-07T10:13:08.349Z,101383.00
2023-04-07T10:15:37.232Z,101378.09
2023-04-07T10:18:05.414Z,101372.72
2023-04-07T10:20:32.850Z,101375.09
2023-04-07T10:23:08.108Z,101379.47
2023-04-07T10:25:37.122Z,101377.41
2023-04-07T10:28:05.055Z,101378.28
2023-04-07T10:30:33.278Z,101384.50
2023-04-07T10:33:01.188Z,101384.50
2023-04-07T10:35:29.787Z,101375.94
2023-04-07T10:38:23.433Z,101379.53
2023-04-07T10:40:50.667Z,101371.25
2023-04-07T10:43:41.570Z,101376.50
2023-04-07T10:46:08.888Z,101369.66
2023-04-07T10:48:36.731Z,101375.66
2023-04-07T10:51:08.045Z,101372.09
2023-04-07T10:53:37.358Z,101369.19
2023-04-07T10:56:05.762Z,101375.41
2023-04-07T10:58:33.974Z,101371.03
2023-04-07T11:01:04.804Z,101379.31
2023-04-07T11:03:34.737Z,101375.03
2023-04-07T11:06:09.436Z,101373.19
2023-04-07T11:08:46.214Z,101369.97
2023-04-07T11:11:20.998Z,101371.09
2023-04-07T11:13:49.834Z,101365.03
2023-04-07T11:16:19.155Z,101366.38
2023-04-07T11:18:50.857Z,101362.00
2023-04-07T11:21:19.020Z,101360.84
2023-04-07T11:23:48.034Z,101368.19
2023-04-07T11:26:16.521Z,101358.84
2023-04-07T11:28:52.943Z,101362.66
2023-04-07T11:31:27.721Z,101365.59
2023-04-07T11:34:03.178Z,101367.56
2023-04-07T11:36:35.031Z,101368.03
2023-04-07T11:39:03.008Z,101360.91
2023-04-07T11:41:32.673Z,101366.41
2023-04-07T11:44:08.075Z,101367.06
2023-04-07T11:46:36.070Z,101360.28
2023-04-07T11:49:15.917Z,101361.56
2023-04-07T11:51:44.969Z,101359.78
2023-04-07T11:54:12.218Z,101355.66
2023-04-07T11:56:44.794Z,101355.78
2023-04-07T11:59:25.989Z,101364.91
2023-04-07T12:01:56.898Z,101370.28
2023-04-07T12:04:24.900Z,101371.50
2023-04-07T12:06:52.143Z,101376.09
2023-04-07T12:09:35.995Z,101374.34
2023-04-07T12:12:09.204Z,101368.75
2023-04-07T12:14:37.135Z,101370.34
2023-04-07T12:17:04.700Z,101378.41
2023-04-07T12:19:34.830Z,101369.72
2023-04-07T12:22:02.124Z,101377.25
2023-04-07T12:24:29.458Z,101380.78
2023-04-07T12:26:58.140Z,101375.66
2023-04-07T12:29:25.567Z,101379.84
2023-04-07T12:31:52.801Z,101380.69
2023-04-07T12:34:20.187Z,101375.94
2023-04-07T12:36:48.310Z,101382.38
2023-04-07T12:39:16.694Z,101385.19
2023-04-07T12:41:45.879Z,101378.16
2023-04-07T12:44:13.200Z,101381.88
2023-04-07T12:46:40.636Z,101378.84
2023-04-07T12:49:08.365Z,101386.16
2023-04-07T12:51:37.568Z,101383.25
2023-04-07T12:54:04.830Z,101391.53
2023-04-07T12:56:32.682Z,101379.09
2023-04-07T12:59:00.147Z,101380.84
2023-04-07T13:01:27.706Z,101386.56
2023-04-07T13:03:56.383Z,101379.84
2023-04-07T13:06:24.449Z,101377.00
2023-04-07T13:08:51.891Z,101377.16
2023-04-07T13:11:19.168Z,101375.53
2023-04-07T13:13:46.992Z,101377.25
2023-04-07T13:16:14.763Z,101374.34
2023-04-07T13:18:42.326Z,101377.25
2023-04-07T13:21:42.948Z,101378.53
2023-04-07T13:23:58.332Z,101376.69
2023-04-07T13:26:26.148Z,101374.34
2023-04-07T13:28:53.746Z,101372.00
2023-04-07T13:31:22.150Z,101373.09
2023-04-07T13:33:49.702Z,101370.31
2023-04-07T13:36:17.213Z,101373.84
2023-04-07T13:38:52.649Z,101371.38
2023-04-07T13:41:19.955Z,101368.69
2023-04-07T13:43:47.314Z,101370.41
2023-04-07T13:46:27.226Z,101373.59
2023-04-07T13:48:56.197Z,101370.34
2023-04-07T13:51:23.493Z,101370.25
2023-04-07T13:53:51.078Z,101362.66
2023-04-07T13:56:18.448Z,101370.56
2023-04-07T13:58:45.966Z,101363.72
2023-04-07T14:01:13.248Z,101357.28
2023-04-07T14:03:40.563Z,101365.66
2023-04-07T14:06:07.818Z,101362.25
2023-04-07T14:08:35.092Z,101364.94
2023-04-07T14:11:05.488Z,101369.19
2023-04-07T14:13:33.052Z,101374.47
2023-04-07T14:16:00.439Z,101362.13
2023-04-07T14:18:28.061Z,101367.19
2023-04-07T14:20:55.424Z,101363.78
2023-04-07T14:23:36.055Z,101355.59
2023-04-07T14:26:04.515Z,101358.91
2023-04-07T14:28:32.038Z,101359.13
2023-04-07T14:30:59.432Z,101356.72
2023-04-07T14:33:26.770Z,101354.88
2023-04-07T14:35:54.072Z,101352.19
2023-04-07T14:38:25.776Z,101352.44
2023-04-07T14:40:53.151Z,101354.88
2023-04-07T14:43:20.520Z,101350.88
2023-04-07T14:45:47.675Z,101352.94
2023-04-07T14:48:14.875Z,101358.22
2023-04-07T14:50:42.363Z,101353.84
2023-04-07T14:53:09.655Z,101357.97
2023-04-07T14:55:37.020Z,101362.94
2023-04-07T14:58:04.471Z,101352.44
2023-04-07T15:00:31.898Z,101355.97
2023-04-07T15:02:59.278Z,101360.56
2023-04-07T15:05:28.708Z,101365.94
2023-04-07T15:07:56.296Z,101358.88
2023-04-07T15:10:23.597Z,101357.16
2023-04-07T15:12:50.826Z,101359.94
2023-04-07T15:15:18.586Z,101357.25
2023-04-07T15:17:45.846Z,101359.94
2023-04-07T15:20:13.559Z,101354.34
2023-04-07T15:22:40.892Z,101362.31
2023-04-07T15:25:08.805Z,101348.94
2023-04-07T15:27:36.215Z,101359.22
2023-04-07T15:30:03.875Z,101356.31
2023-04-07T15:32:31.977Z,101356.41
2023-04-07T15:34:59.306Z,101359.59
2023-04-07T15:37:26.928Z,101357.78
2023-04-07T15:39:56.674Z,101362.28
2023-04-07T15:42:23.896Z,101354.38
2023-04-07T15:44:51.342Z,101358.75
2023-04-07T15:47:18.498Z,101359.25
2023-04-07T15:49:45.991Z,101352.38
2023-04-07T15:52:13.616Z,101356.00
2023-04-07T15:54:40.820Z,101361.16
2023-04-07T15:57:08.232Z,101359.44
2023-04-07T15:59:36.143Z,101362.88
2023-04-07T16:02:03.460Z,101362.00
2023-04-07T16:04:30.790Z,101362.66
2023-04-07T16:06:58.226Z,101363.28
2023-04-07T16:09:26.183Z,101367.06
2023-04-07T16:11:53.371Z,101364.53
2023-04-07T16:14:20.660Z,101367.38
2023-04-07T16:16:47.841Z,101365.88
2023-04-07T16:19:15.103Z,101373.72
2023-04-07T16:21:42.612Z,101376.78
2023-04-07T16:24:09.799Z,101365.66
2023-04-07T16:26:37.276Z,101369.19
2023-04-07T16:29:04.767Z,101373.84
2023-04-07T16:31:31.957Z,101370.41
2023-04-07T16:33:59.200Z,101371.38
2023-04-07T16:36:28.991Z,101374.91
2023-04-07T16:38:57.614Z,101375.25
2023-04-07T16:41:25.046Z,101373.94
2023-04-07T16:43:52.245Z,101382.84
2023-04-07T16:46:20.250Z,101380.59
2023-04-07T16:48:47.820Z,101377.91
2023-04-07T16:51:18.218Z,101378.81
2023-04-07T16:53:45.398Z,101377.28
2023-04-07T16:56:19.823Z,101375.38
2023-04-07T16:58:47.901Z,101378.28
2023-04-07T17:01:15.804Z,101388.03
2023-04-07T17:03:43.345Z,101379.47
2023-04-07T17:06:10.656Z,101381.31
2023-04-07T17:08:38.917Z,101386.22
2023-04-07T17:11:15.366Z,101383.47
2023-04-07T17:13:42.800Z,101394.28
2023-04-07T17:16:14.318Z,101399.72
2023-04-07T17:18:41.577Z,101395.44
2023-04-07T17:21:08.779Z,101395.22
2023-04-07T17:23:35.999Z,101405.31
2023-04-07T17:26:03.367Z,101391.81
2023-04-07T17:28:30.608Z,101401.56
2023-04-07T17:30:58.499Z,101402.41
2023-04-07T17:33:26.244Z,101398.94
2023-04-07T17:35:53.529Z,101406.13
2023-04-07T17:38:20.936Z,101403.97
2023-04-07T17:40:48.204Z,101402.53
2023-04-07T17:43:15.819Z,101406.47
2023-04-07T17:45:43.065Z,101412.16
2023-04-07T17:48:12.067Z,101413.44
2023-04-07T17:50:39.666Z,101411.75
2023-04-07T17:53:07.692Z,101415.28
2023-04-07T17:55:34.976Z,101423.56
2023-04-07T17:58:02.270Z,101422.72
2023-04-07T18:00:30.012Z,101427.72
2023-04-07T18:02:57.556Z,101421.72
2023-04-07T18:05:26.008Z,101421.97
2023-04-07T18:07:54.770Z,101432.38
2023-04-07T18:10:22.044Z,101424.41
2023-04-07T18:12:49.336Z,101426.34
2023-04-07T18:15:16.539Z,101431.63
2023-04-07T18:17:44.147Z,101428.09
2023-04-07T18:20:11.838Z,101430.63
2023-04-07T18:22:39.266Z,101436.63
2023-04-07T18:25:07.175Z,101434.16
2023-04-07T18:27:34.577Z,101439.44
2023-04-07T18:30:02.227Z,101436.84
2023-04-07T18:32:29.784Z,101439.75
2023-04-07T18:34:59.356Z,101432.06
2023-04-07T18:37:27.231Z,101432.91
2023-04-07T18:39:54.585Z,101441.50
2023-04-07T18:42:22.091Z,101443.81
2023-04-07T18:44:49.459Z,101449.31
2023-04-07T18:47:17.344Z,101449.31
2023-04-07T18:49:44.966Z,101446.28
2023-04-07T18:52:12.246Z,101450.19
2023-04-07T18:54:39.452Z,101450.19
2023-04-07T18:57:06.649Z,101452.28
2023-04-07T18:59:33.795Z,101449.72
2023-04-07T19:02:01.244Z,101451.03
2023-04-07T19:04:28.820Z,101458.56
2023-04-07T19:06:57.634Z,101462.22
2023-04-07T19:09:25.886Z,101462.66
2023-04-07T19:11:53.666Z,101463.50
2023-04-07T19:14:21.027Z,101464.72
2023-04-07T19:16:48.384Z,101478.25
2023-04-07T19:19:16.863Z,101467.84
2023-04-07T19:21:52.903Z,101473.97
2023-04-07T19:24:20.331Z,101474.06
2023-04-07T19:26:47.586Z,101478.56
2023-04-07T19:29:15.104Z,101480.41
2023-04-07T19:31:42.669Z,101485.69
2023-04-07T19:34:09.945Z,101480.53
2023-04-07T19:36:37.193Z,101492.22
2023-04-07T19:39:05.332Z,101484.06
2023-04-07T19:41:33.103Z,101484.78
2023-04-07T19:44:00.309Z,101487.06
2023-04-07T19:46:27.677Z,101487.28
2023-04-07T19:48:54.895Z,101483.97
2023-04-07T19:51:22.459Z,101482.03
2023-04-07T19:53:49.762Z,101482.91
2023-04-07T19:56:17.281Z,101479.16
2023-04-07T19:58:44.656Z,101484.59
2023-04-07T20:01:18.322Z,101487.06
2023-04-07T20:03:46.735Z,101491.06
2023-04-07T20:06:15.413Z,101488.38
2023-04-07T20:08:43.614Z,101490.34
2023-04-07T20:11:11.269Z,101493.78
2023-04-07T20:13:39.170Z,101490.09
2023-04-07T20:16:06.682Z,101491.75
2023-04-07T20:18:34.089Z,101485.44
2023-04-07T20:21:02.248Z,101490.38
2023-04-07T20:23:29.906Z,101485.13
2023-04-07T20:25:57.434Z,101486.97
2023-04-07T20:28:25.334Z,101481.25
2023-04-07T20:30:52.669Z,101477.09
2023-04-07T20:33:20.245Z,101481.38
2023-04-07T20:35:47.668Z,101477.72
2023-04-07T20:38:14.968Z,101484.91
2023-04-07T20:40:42.155Z,101478.06
2023-04-07T20:43:09.385Z,101477.09
2023-04-07T20:45:36.868Z,101476.97
2023-04-07T20:48:04.668Z,101467.97
2023-04-07T20:50:31.967Z,101469.81
2023-04-07T20:52:59.280Z,101477.72
2023-04-07T20:55:27.237Z,101475.91
2023-04-07T20:57:54.754Z,101473.97
2023-04-07T21:00:22.750Z,101476.88
2023-04-07T21:02:50.502Z,101478.69
2023-04-07T21:05:18.488Z,101487.47
2023-04-07T21:07:45.890Z,101488.38
2023-04-07T21:10:14.362Z,101485.94
2023-04-07T21:12:41.858Z,101483.47
2023-04-07T21:15:09.314Z,101484.72
2023-04-07T21:17:36.539Z,101488.91
2023-04-07T21:20:06.713Z,101474.50
2023-04-07T21:22:34.406Z,101470.34
2023-04-07T21:25:01.742Z,101483.53
2023-04-07T21:27:30.030Z,101490.84
2023-04-07T21:29:57.493Z,101490.72
2023-04-07T21:32:25.196Z,101473.56
2023-04-07T21:34:53.426Z,101474.50
2023-04-07T21:37:22.948Z,101475.19
2023-04-07T21:39:53.988Z,101474.09
2023-04-07T21:42:22.495Z,101478.50
2023-04-07T21:44:50.044Z,101481.06
2023-04-07T21:47:17.533Z,101477.31
2023-04-07T21:49:45.136Z,101476.25
2023-04-07T21:52:13.575Z,101482.56
2023-04-07T21:54:41.920Z,101479.16
2023-04-07T21:57:09.153Z,101477.44
2023-04-07T21:59:37.636Z,101473.88
2023-04-07T22:02:07.710Z,101480.13
2023-04-07T22:04:36.011Z,101479.22
2023-04-07T22:07:03.964Z,101478.16
2023-04-07T22:09:31.492Z,101485.59
2023-04-07T22:11:58.660Z,101484.81
2023-04-07T22:14:26.533Z,101490.19
2023-04-07T22:16:53.908Z,101491.94
2023-04-07T22:19:21.299Z,101489.34
2023-04-07T22:21:49.452Z,101487.50
2023-04-07T22:24:16.735Z,101479.78
2023-04-07T22:26:44.146Z,101470.25
2023-04-07T22:29:12.055Z,101477.31
2023-04-07T22:31:39.250Z,101462.06
2023-04-07T22:34:06.854Z,101471.19
2023-04-07T22:36:34.349Z,101474.97
2023-04-07T22:39:01.538Z,101476.69
2023-04-07T22:41:28.906Z,101478.72
2023-04-07T22:43:56.153Z,101477.13
2023-04-07T22:46:23.398Z,101488.59
2023-04-07T22:48:50.945Z,101484.41
2023-04-07T22:51:18.814Z,101486.88
2023-04-07T22:53:46.367Z,101482.34
2023-04-07T22:56:13.798Z,101477.97
2023-04-07T22:58:41.375Z,101483.47
2023-04-07T23:01:08.655Z,101485.25
2023-04-07T23:03:36.207Z,101497.72
2023-04-07T23:06:03.857Z,101489.78
2023-04-07T23:08:31.158Z,101492.66
2023-04-07T23:10:58.356Z,101496.97
2023-04-07T23:13:25.888Z,101496.13
2023-04-07T23:15:53.084Z,101492.66
2023-04-07T23:18:20.309Z,101484.00
2023-04-07T23:20:53.632Z,101490.97
2023-04-07T23:23:21.090Z,101481.44
2023-04-07T23:25:48.320Z,101488.28
2023-04-07T23:28:15.577Z,101487.53
2023-04-07T23:30:42.804Z,101490.22
2023-04-07T23:33:09.994Z,101497.41
2023-04-07T23:35:37.224Z,101498.38
2023-04-07T23:38:04.664Z,101502.88
2023-04-07T23:40:31.924Z,101501.91
2023-04-07T23:42:59.087Z,101501.41
2023-04-07T23:45:26.289Z,101485.19
2023-04-07T23:47:53.476Z,101489.78
2023-04-07T23:50:20.900Z,101482.50
2023-04-07T23:52:48.120Z,101486.88
2023-04-07T23:55:15.306Z,101484.22
2023-04-07T23:57:42.477Z,101485.19
